Data for 07/07/2014

Time Sea-Level Adjusted Pressure Absolute Pressure Temperature Relative Humidity Dew Point   
(mb) (inHg) (mb) (inHg) (C) (F) (%) (C) (F)
00:05 1021 30.15 850 25.1 20 68 42 6.8 44.3
00:10 1021 30.15 850 25.1 19.7 67.5 43 7 44.7
00:15 1021 30.15 850 25.1 19.7 67.4 43 6.8 44.3
00:20 1021 30.15 850 25.1 19.7 67.4 44 7.1 44.7
00:25 1021 30.15 850 25.1 19.5 67.2 47 8 46.4
00:30 1021 30.15 850 25.1 19.4 67 46 7.7 45.8
00:35 1021 30.15 850 25.1 19.1 66.4 49 8.2 46.7
00:40 1021 30.15 850 25.1 19.1 66.3 46 7.5 45.4
00:45 1021 30.15 850 25.1 19.2 66.5 47 7.8 46.1
00:50 1021 30.15 850 25.1 19 66.1 45 6.8 44.3
00:55 1021 30.15 850 25.1 18.9 66 47 7.5 45.5
01:00 1021 30.15 850 25.1 18.8 65.8 46 6.9 44.4
01:05 1021 30.15 850 25.1 18.8 65.9 47 7.4 45.3
01:10 1021 30.15 850 25.1 18.8 65.9 46 7.2 44.9
01:15 1021 30.15 850 25.1 18.9 66 46 7.1 44.8
01:20 1021 30.15 850 25.1 19 66.2 48 7.8 46
01:25 1021 30.15 850 25.1 19 66.2 46 7.4 45.2
01:30 1021 30.15 850 25.1 19.1 66.4 48 7.9 46.2
01:35 1021 30.15 850 25.1 18.9 65.9 50 8.2 46.8
01:40 1021 30.15 850 25.1 18.6 65.5 50 8.2 46.8
01:45 1021 30.15 850 25.1 18.5 65.3 51 8.4 47
01:50 1021 30.15 850 25.1 18.4 65.1 52 8.5 47.3
01:55 1021 30.15 850 25.1 18.3 64.9 54 8.8 47.8
02:00 1021 30.15 850 25.1 18 64.3 55 8.8 47.9
02:05 1021 30.15 851 25.13 17.6 63.6 54 8.3 46.9
02:10 1021 30.15 851 25.13 17.5 63.6 52 7.8 46
02:15 1021 30.15 851 25.13 17.7 63.8 51 7.6 45.6
02:20 1021 30.15 851 25.13 17.9 64.2 50 7.5 45.6
02:25 1022 30.18 851 25.13 18.1 64.5 48 7.1 44.9
02:30 1022 30.18 851 25.13 18.2 64.7 49 7.3 45.1
02:35 1022 30.18 851 25.13 18.2 64.7 46 6.4 43.6
02:40 1022 30.18 851 25.13 18.2 64.8 46 6.6 43.9
02:45 1022 30.18 851 25.13 18.2 64.7 44 6 42.8
02:50 1022 30.18 851 25.13 18.4 65.1 42 5.5 41.9
02:55 1022 30.18 851 25.13 18.7 65.6 42 5.7 42.2
03:00 1022 30.18 851 25.13 18.7 65.6 41 5.4 41.8
03:05 1022 30.18 851 25.13 18.7 65.7 41 5.5 41.9
03:10 1022 30.18 851 25.13 18.7 65.6 42 5.6 42.1
03:15 1022 30.18 851 25.13 18.3 65 44 5.9 42.7
03:20 1022 30.18 851 25.13 18 64.4 45 5.9 42.6
03:25 1022 30.18 851 25.13 17.8 64 45 5.9 42.6
03:30 1022 30.18 851 25.13 17.6 63.8 46 5.9 42.6
03:35 1022 30.18 851 25.13 17.5 63.4 48 6.4 43.5
03:40 1022 30.18 851 25.13 16.7 62.1 51 6.8 44.2
03:45 1022 30.18 851 25.13 16.1 60.9 53 6.6 43.9
03:50 1022 30.18 851 25.13 15.9 60.7 54 6.8 44.2
03:55 1022 30.18 851 25.13 15.5 60 56 6.9 44.4
04:00 1022 30.18 851 25.13 15.2 59.3 57 6.9 44.4
04:05 1022 30.18 851 25.13 15.3 59.6 54 6.1 42.9
04:10 1022 30.18 851 25.13 15.8 60.5 51 5.8 42.5
04:15 1022 30.18 851 25.13 16 60.7 52 6.2 43.1
04:20 1022 30.18 852 25.16 16 60.9 50 5.9 42.5
04:25 1022 30.18 852 25.16 16.1 61 52 6.2 43.1
04:30 1022 30.18 852 25.16 16 60.8 54 6.9 44.4
04:35 1022 30.18 852 25.16 16.1 60.9 51 6 42.9
04:40 1022 30.18 852 25.16 16 60.8 51 5.9 42.7
04:45 1023 30.21 852 25.16 15.9 60.6 52 6.1 43
04:50 1023 30.21 852 25.16 15.8 60.4 52 6.2 43.1
04:55 1023 30.21 852 25.16 15.6 60.1 53 6.2 43.1
05:00 1023 30.21 852 25.16 15.4 59.6 54 6.1 43
05:05 1023 30.21 852 25.16 15.4 59.6 55 6.5 43.8
05:10 1023 30.21 852 25.16 15.3 59.6 54 6.3 43.3
05:15 1023 30.21 852 25.16 15.3 59.6 54 6 42.8
05:20 1023 30.21 852 25.16 15.5 59.9 52 5.9 42.6
05:25 1023 30.21 852 25.16 15.9 60.6 52 6.1 43
05:30 1023 30.21 852 25.16 15.9 60.6 50 5.5 42
05:35 1023 30.21 852 25.16 16.1 61 49 5.4 41.8
05:40 1023 30.21 852 25.16 16.4 61.5 48 5.5 41.8
05:45 1023 30.21 852 25.16 16.4 61.5 49 5.8 42.4
05:50 1023 30.21 852 25.16 16.1 61.1 52 6.3 43.3
05:55 1023 30.21 852 25.16 16.2 61.2 49 5.6 42
06:00 1023 30.21 852 25.16 16.9 62.4 46 5.4 41.7
06:05 1023 30.21 852 25.16 17.4 63.3 50 7.1 44.8
06:10 1023 30.21 852 25.16 17.3 63.1 53 7.6 45.7
06:15 1023 30.21 852 25.16 17.4 63.4 50 7 44.7
06:20 1023 30.21 852 25.16 17.5 63.4 49 6.7 44.1
06:25 1023 30.21 852 25.16 17.7 63.9 45 5.8 42.4
06:30 1023 30.21 853 25.19 18.2 64.7 44 5.8 42.4
06:35 1023 30.21 853 25.19 18.2 64.8 43 5.7 42.2
06:40 1023 30.21 853 25.19 18.3 64.9 46 6.5 43.7
06:45 1023 30.21 853 25.19 18.5 65.3 44 6.1 43
06:50 1023 30.21 853 25.19 18.8 65.8 44 6.5 43.8
06:55 1023 30.21 853 25.19 19.1 66.4 44 6.7 44.1
07:00 1024 30.24 853 25.19 19.5 67.2 43 6.6 44
07:05 1024 30.24 853 25.19 20.4 68.6 43 7.6 45.7
07:10 1024 30.24 853 25.19 20.5 68.9 43 7.8 46
07:15 1024 30.24 853 25.19 20.9 69.7 41 7.2 45
07:20 1024 30.24 853 25.19 21.3 70.3 39 6.8 44.3
07:25 1024 30.24 853 25.19 21.1 70 37 5.9 42.7
07:30 1024 30.24 853 25.19 20.9 69.7 37 5.9 42.6
07:35 1024 30.24 853 25.19 21.3 70.3 36 6 42.7
07:40 1024 30.24 853 25.19 21.4 70.5 34 4.9 40.8
07:45 1024 30.24 853 25.19 21.3 70.4 35 5.4 41.8
07:50 1024 30.24 853 25.19 21.6 70.8 34 5.1 41.2
07:55 1024 30.24 853 25.19 21.9 71.4 33 5 40.9
08:00 1024 30.24 853 25.19 22.2 71.9 34 5.6 42.1
08:05 1024 30.24 853 25.19 22.1 71.8 34 5.5 42
08:10 1024 30.24 853 25.19 22 71.5 34 5.5 42
08:15 1024 30.24 853 25.19 22.4 72.3 33 5.7 42.3
08:20 1024 30.24 853 25.19 22.6 72.7 33 5.9 42.6
08:25 1024 30.24 853 25.19 22.4 72.3 35 6.4 43.5
08:30 1024 30.24 853 25.19 22.4 72.3 35 6.3 43.3
08:35 1024 30.24 853 25.19 22.4 72.3 34 6 42.8
08:40 1024 30.24 853 25.19 22.5 72.4 34 5.8 42.5
08:45 1024 30.24 853 25.19 22.5 72.5 34 6.2 43.2
08:50 1024 30.24 853 25.19 22.6 72.6 36 6.8 44.3
08:55 1024 30.24 853 25.19 22.6 72.6 32 5.4 41.8
09:00 1024 30.24 853 25.19 23.1 73.5 32 5.8 42.5
09:05 1024 30.24 853 25.19 23 73.3 33 6 42.8
09:10 1024 30.24 853 25.19 22.1 71.8 35 6.3 43.3
09:15 1024 30.24 853 25.19 22 71.6 33 5.2 41.4
09:20 1024 30.24 853 25.19 22.9 73.3 31 4.9 40.8
09:25 1024 30.24 853 25.19 23.4 74.1 30 4.9 40.8
09:30 1024 30.24 853 25.19 23.1 73.5 32 5.5 42
09:35 1024 30.24 853 25.19 23.2 73.7 32 5.6 42.2
09:40 1024 30.24 853 25.19 22.9 73.2 32 5.6 42
09:45 1024 30.24 853 25.19 22.2 72 33 5.4 41.8
09:50 1024 30.24 853 25.19 22.4 72.4 33 5.4 41.8
09:55 1024 30.24 854 25.22 23 73.5 30 4.9 40.7
10:00 1024 30.24 854 25.22 23.8 74.8 30 5.6 42.1
10:05 1024 30.24 854 25.22 24.2 75.5 32 6.6 43.9
10:10 1024 30.24 854 25.22 23.2 73.7 35 7.2 45
10:15 1024 30.24 854 25.22 22.1 71.7 35 6.1 43.1
10:20 1024 30.24 854 25.22 22.8 73.1 32 5.6 42
10:25 1024 30.24 854 25.22 22.7 72.9 34 6.3 43.4
10:30 1024 30.24 854 25.22 22.4 72.2 34 5.9 42.7
10:35 1024 30.24 854 25.22 22.5 72.5 33 5.7 42.3
10:40 1024 30.24 854 25.22 23.3 74 31 5.3 41.6
10:45 1024 30.24 854 25.22 24.1 75.4 30 5.9 42.7
10:50 1024 30.24 854 25.22 24.3 75.8 31 6.1 43
10:55 1024 30.24 854 25.22 24.3 75.8 30 5.9 42.6
11:00 1024 30.24 854 25.22 24.1 75.4 32 6.6 44
11:05 1024 30.24 854 25.22 23.6 74.4 33 6.5 43.7
11:10 1024 30.24 853 25.19 22.8 73 33 5.7 42.3
11:15 1024 30.24 854 25.22 23.7 74.6 31 5.9 42.6
11:20 1024 30.24 854 25.22 24.1 75.3 32 6.6 43.9
11:25 1024 30.24 853 25.19 23.5 74.2 34 6.8 44.2
11:30 1024 30.24 853 25.19 24.6 76.4 31 6.6 43.8
11:35 1024 30.24 854 25.22 25.2 77.4 32 7.6 45.8
11:40 1024 30.24 853 25.19 23.7 74.6 33 6.9 44.4
11:45 1024 30.24 853 25.19 24.1 75.4 29 5.1 41.2
11:50 1024 30.24 853 25.19 24.8 76.6 29 6 42.8
11:55 1024 30.24 853 25.19 25.1 77.3 30 6.4 43.5
12:00 1024 30.24 853 25.19 24.9 76.8 31 6.7 44
12:05 1024 30.24 853 25.19 24.1 75.5 30 5.7 42.3
12:10 1024 30.24 853 25.19 25.2 77.4 30 6.6 43.9
12:15 1024 30.24 853 25.19 25.7 78.2 29 6.5 43.7
12:20 1024 30.24 853 25.19 25.1 77.1 30 6.3 43.4
12:25 1024 30.24 853 25.19 24.9 76.9 27 4.6 40.4
12:30 1024 30.24 853 25.19 24.4 76 29 5.4 41.7
12:35 1024 30.24 853 25.19 25.6 78 28 6.2 43.1
12:40 1024 30.24 853 25.19 25.7 78.2 29 6.7 44.1
12:45 1024 30.24 853 25.19 26.1 79 25 4.9 40.7
12:50 1024 30.24 853 25.19 26.7 80 23 4.2 39.5
12:55 1024 30.24 853 25.19 26.4 79.5 26 5.8 42.5
13:00 1024 30.24 853 25.19 25.5 77.9 27 5.5 41.9
13:05 1024 30.24 853 25.19 25.7 78.3 28 5.9 42.7
13:10 1024 30.24 853 25.19 26.2 79.2 27 6 42.7
13:15 1024 30.24 853 25.19 26.3 79.4 27 5.9 42.7
13:20 1024 30.24 853 25.19 26.2 79.1 26 5.3 41.6
13:25 1024 30.24 853 25.19 26.2 79.2 26 5.5 42
13:30 1024 30.24 853 25.19 26.2 79.2 24 4.2 39.6
13:35 1024 30.24 853 25.19 26 78.8 26 5 41
13:40 1024 30.24 853 25.19 26 78.8 26 5.3 41.5
13:45 1024 30.24 853 25.19 26.7 80.1 25 5.2 41.4
13:50 1024 30.24 853 25.19 26.9 80.4 25 5.5 41.8
13:55 1024 30.24 853 25.19 26.6 79.9 26 5.6 42
14:00 1024 30.24 853 25.19 25.8 78.4 27 5.9 42.6
14:05 1024 30.24 853 25.19 25.7 78.2 28 6.2 43.2
14:10 1024 30.24 853 25.19 25.4 77.7 25 4.4 39.9
14:15 1024 30.24 853 25.19 25.8 78.4 24 3.8 38.9
14:20 1024 30.24 853 25.19 26.8 80.3 23 4 39.2
14:25 1024 30.24 853 25.19 27.2 80.9 23 4.8 40.7
14:30 1024 30.24 853 25.19 27 80.6 23 4.4 39.8
14:35 1024 30.24 853 25.19 27.3 81.1 25 5.6 42
14:40 1024 30.24 853 25.19 26.5 79.7 25 5 41
14:45 1024 30.24 853 25.19 26.9 80.5 25 5.3 41.5
14:50 1024 30.24 853 25.19 26.7 80 25 5.5 41.9
14:55 1024 30.24 853 25.19 26.2 79.2 25 4.9 40.9
15:00 1024 30.24 853 25.19 26.9 80.4 24 4.7 40.4
15:05 1024 30.24 853 25.19 27.1 80.8 24 4.9 40.8
15:10 1024 30.24 853 25.19 27.4 81.3 22 4 39.1
15:15 1023 30.21 853 25.19 27.1 80.7 22 3.9 39
15:20 1023 30.21 853 25.19 26.9 80.3 24 4.7 40.4
15:25 1024 30.24 853 25.19 26.6 79.9 23 4.1 39.4
15:30 1023 30.21 853 25.19 27.1 80.7 22 4 39.2
15:35 1023 30.21 853 25.19 27 80.7 23 4.4 39.9
15:40 1023 30.21 853 25.19 27 80.5 23 4.2 39.5
15:45 1023 30.21 853 25.19 26.9 80.4 22 3.6 38.5
15:50 1023 30.21 853 25.19 26.3 79.4 22 3.3 37.9
15:55 1023 30.21 853 25.19 26.3 79.4 23 3.7 38.7
16:00 1023 30.21 852 25.16 26.3 79.4 23 4 39.2
16:05 1023 30.21 852 25.16 26.3 79.4 22 3.4 38.2
16:10 1023 30.21 852 25.16 26.7 80.1 21 3.1 37.6
16:15 1023 30.21 852 25.16 26.8 80.2 20 2.1 35.8
16:20 1023 30.21 852 25.16 25.9 78.7 20 1.7 35
16:25 1023 30.21 852 25.16 26.2 79.2 22 3.1 37.5
16:30 1023 30.21 852 25.16 25.7 78.2 22 2.8 37.1
16:35 1023 30.21 852 25.16 26.5 79.8 20 2.3 36.1
16:40 1023 30.21 852 25.16 25.6 78.2 21 2 35.6
16:45 1023 30.21 852 25.16 25.6 78.1 22 2.7 36.8
16:50 1023 30.21 852 25.16 26.5 79.7 21 2.9 37.3
16:55 1023 30.21 852 25.16 26.5 79.7 21 2.5 36.6
17:00 1023 30.21 852 25.16 26.2 79.1 19 1.3 34.4
17:05 1023 30.21 852 25.16 25.9 78.5 19 0.6 33.1
17:10 1023 30.21 852 25.16 26.1 78.9 20 1.6 34.8
17:15 1023 30.21 852 25.16 26 78.9 20 1.8 35.2
17:20 1023 30.21 852 25.16 25.9 78.6 20 1.8 35.2
17:25 1023 30.21 852 25.16 26.6 79.8 20 1.7 35.1
17:30 1023 30.21 852 25.16 26.2 79.2 21 2.6 36.8
17:35 1023 30.21 852 25.16 27 80.5 21 2.9 37.2
17:40 1023 30.21 852 25.16 27.2 81 20 2.8 37
17:45 1023 30.21 852 25.16 26.8 80.3 20 2.5 36.5
17:50 1023 30.21 852 25.16 26.3 79.4 21 2.8 37
17:55 1023 30.21 852 25.16 25.8 78.5 23 3.1 37.6
18:00 1023 30.21 852 25.16 26.4 79.6 20 2 35.6
18:05 1023 30.21 852 25.16 26.5 79.7 20 2.2 36
18:10 1023 30.21 852 25.16 26.6 79.9 20 2.2 35.9
18:15 1023 30.21 852 25.16 26.4 79.5 21 2.8 37.1
18:20 1023 30.21 852 25.16 25.6 78.1 21 2.2 35.9
18:25 1023 30.21 852 25.16 25.7 78.3 22 2.7 36.8
18:30 1023 30.21 852 25.16 25.4 77.7 22 2.5 36.6
18:35 1023 30.21 852 25.16 24.9 76.8 25 3.8 38.8
18:40 1023 30.21 852 25.16 24.5 76.2 30 6 42.7
18:45 1023 30.21 852 25.16 24.2 75.5 30 5.8 42.4
18:50 1023 30.21 852 25.16 24 75.2 31 6.2 43.2
18:55 1023 30.21 852 25.16 23.9 75.1 31 6 42.8
19:00 1023 30.21 852 25.16 23.7 74.6 31 5.9 42.6
19:05 1023 30.21 852 25.16 23.5 74.4 33 6.4 43.6
19:10 1023 30.21 852 25.16 23.1 73.6 35 6.9 44.5
19:15 1023 30.21 852 25.16 22.8 73.1 35 6.9 44.5
19:20 1023 30.21 852 25.16 22.7 72.8 36 7.2 44.9
19:25 1023 30.21 852 25.16 22.5 72.5 37 7.1 44.8
19:30 1023 30.21 852 25.16 22.4 72.3 37 7.2 44.9
19:35 1023 30.21 852 25.16 22.2 71.9 38 7.4 45.4
19:40 1023 30.21 852 25.16 22 71.6 38 7.4 45.2
19:45 1023 30.21 852 25.16 21.8 71.3 39 7.6 45.6
19:50 1023 30.21 852 25.16 21.5 70.8 40 7.5 45.6
19:55 1023 30.21 852 25.16 21.3 70.3 41 7.7 45.9
20:00 1023 30.21 852 25.16 21 69.7 41 7.5 45.5
20:05 1023 30.21 852 25.16 20.8 69.4 42 7.5 45.4
20:10 1023 30.21 852 25.16 20.6 69.1 42 7.5 45.5
20:15 1023 30.21 852 25.16 20.5 68.8 43 7.6 45.6
20:20 1023 30.21 852 25.16 20.3 68.5 43 7.6 45.6
20:25 1023 30.21 852 25.16 20.1 68.2 44 7.6 45.7
20:30 1023 30.21 852 25.16 19.9 67.8 45 7.6 45.7
20:35 1023 30.21 852 25.16 19.7 67.5 45 7.7 45.8
20:40 1023 30.21 852 25.16 19.6 67.2 45 7.6 45.7
20:45 1023 30.21 852 25.16 19.4 66.9 46 7.5 45.5
20:50 1023 30.21 852 25.16 19.3 66.7 46 7.6 45.7
20:55 1023 30.21 852 25.16 19.1 66.4 46 7.5 45.5
21:00 1023 30.21 852 25.16 19 66.2 46 7.3 45.1
21:05 1023 30.21 852 25.16 18.9 66.1 46 7.1 44.7
21:10 1023 30.21 852 25.16 18.8 65.9 46 7 44.7
21:15 1023 30.21 852 25.16 18.8 65.8 46 7 44.6
21:20 1023 30.21 852 25.16 18.7 65.6 46 7 44.6
21:25 1023 30.21 852 25.16 18.6 65.4 46 7 44.5
21:30 1023 30.21 852 25.16 18.5 65.4 46 6.8 44.2
21:35 1023 30.21 852 25.16 18.5 65.2 46 6.7 44
21:40 1023 30.21 852 25.16 18.3 65 46 6.6 43.9
21:45 1023 30.21 852 25.16 18.2 64.8 45 6.4 43.5
21:50 1023 30.21 852 25.16 18.2 64.8 45 6.3 43.3
21:55 1023 30.21 852 25.16 18.3 64.9 44 6 42.9
22:00 1023 30.21 852 25.16 18.2 64.8 44 6 42.9
22:05 1023 30.21 852 25.16 18.2 64.8 44 5.9 42.7
22:10 1023 30.21 852 25.16 18.2 64.7 44 5.9 42.5
22:15 1023 30.21 852 25.16 18.2 64.7 43 5.7 42.2
22:20 1023 30.21 852 25.16 18.2 64.7 43 5.6 42
22:25 1023 30.21 852 25.16 18.2 64.7 43 5.4 41.8
22:30 1023 30.21 852 25.16 18.2 64.7 42 5.3 41.6
22:35 1023 30.21 852 25.16 18.1 64.6 43 5.3 41.6
22:40 1023 30.21 852 25.16 18.1 64.5 42 5.1 41.2
22:45 1023 30.21 852 25.16 18.1 64.5 42 5.1 41.2
22:50 1023 30.21 852 25.16 18 64.4 43 5.2 41.4
22:55 1023 30.21 852 25.16 17.9 64.2 43 5.3 41.5
23:00 1023 30.21 852 25.16 17.9 64.2 42 5.1 41.2
23:05 1023 30.21 852 25.16 17.9 64.1 43 5.1 41.2
23:10 1023 30.21 852 25.16 17.8 64 42 5 41
23:15 1023 30.21 852 25.16 17.7 63.9 43 5 41.1
23:20 1023 30.21 852 25.16 17.7 63.9 42 4.8 40.7
23:25 1023 30.21 852 25.16 17.8 64 41 4.6 40.3
23:30 1023 30.21 852 25.16 17.8 64 41 4.5 40.2
23:35 1023 30.21 852 25.16 17.7 63.9 41 4.4 39.9
23:40 1023 30.21 852 25.16 17.8 64 41 4.4 39.9
23:45 1023 30.21 852 25.16 17.8 64 41 4.4 40
23:50 1023 30.21 852 25.16 17.6 63.7 42 4.6 40.3
23:55 1023 30.21 852 25.16 17.5 63.5 42 4.6 40.4
24:00 1023 30.21 852 25.16 17.4 63.3 43 4.8 40.7